Time;durP1;ratioP1;P1;durP2;ratioP2;P2;SDS_P1;SDS_P2;PMS_P1;PMS_P2;Temp;Humidity;BMP_temperature;BMP_pressure;BME280_temperature;BME280_humidity;BME280_pressure;Samples;Min_cycle;Max_cycle;Signal;HPM_P1;HPM_P2
2021/12/21 00:00:12;;;;;;;19.20;18.30;;;;;;;;;;5091971;28;20196;-78
2021/12/21 00:02:39;;;;;;;22.00;20.80;;;;;;;;;;5092245;28;20201;-78
2021/12/21 00:05:06;;;;;;;21.23;20.13;;;;;;;;;;5092410;28;20190;-78
2021/12/21 00:07:34;;;;;;;20.63;19.63;;;;;;;;;;5091963;28;20229;-78
2021/12/21 00:10:01;;;;;;;21.27;20.13;;;;;;;;;;5092516;28;20255;-77
2021/12/21 00:12:31;;;;;;;19.53;18.53;;;;;;;;;;5092230;28;20194;-78
2021/12/21 00:15:02;;;;;;;18.53;17.63;;;;;;;;;;5092238;28;20231;-79
2021/12/21 00:17:48;;;;;;;20.07;19.07;;;;;;;;;;5091886;28;20178;-79
2021/12/21 00:20:29;;;;;;;20.37;19.27;;;;;;;;;;5091872;28;20195;-79
2021/12/21 00:25:50;;;;;;;19.73;18.63;;;;;;;;;;5091767;28;20682;-79
2021/12/21 00:28:17;;;;;;;19.20;18.20;;;;;;;;;;5092356;28;20198;-80
2021/12/21 00:30:43;;;;;;;19.43;18.43;;;;;;;;;;5092041;28;20230;-81
2021/12/21 00:33:10;;;;;;;18.73;17.93;;;;;;;;;;5092063;28;20227;-78
2021/12/21 00:35:37;;;;;;;20.80;19.50;;;;;;;;;;5095647;28;20280;-81
2021/12/21 00:38:05;;;;;;;21.67;20.37;;;;;;;;;;5095788;28;20280;-80
2021/12/21 00:40:32;;;;;;;19.80;18.70;;;;;;;;;;5095793;28;20228;-78
2021/12/21 00:42:59;;;;;;;22.53;21.13;;;;;;;;;;5095430;28;20233;-78
2021/12/21 00:45:25;;;;;;;21.43;20.23;;;;;;;;;;5095942;28;20194;-79
2021/12/21 00:47:52;;;;;;;22.37;21.03;;;;;;;;;;5095607;28;20233;-80
2021/12/21 00:50:19;;;;;;;20.10;19.10;;;;;;;;;;5095643;28;20232;-77
2021/12/21 00:52:47;;;;;;;21.27;20.17;;;;;;;;;;5095264;28;20281;-80
2021/12/21 00:55:15;;;;;;;21.37;20.17;;;;;;;;;;5095251;28;20197;-79
2021/12/21 00:57:42;;;;;;;22.83;21.47;;;;;;;;;;5095511;28;20198;-80
2021/12/21 01:00:10;;;;;;;21.57;20.37;;;;;;;;;;5095414;28;20699;-79
2021/12/21 01:02:36;;;;;;;21.43;20.33;;;;;;;;;;5095398;28;20190;-79
2021/12/21 01:05:05;;;;;;;20.67;19.67;;;;;;;;;;5094936;28;20768;-78
2021/12/21 01:07:36;;;;;;;24.23;22.50;;;;;;;;;;5094975;28;20225;-80
2021/12/21 01:12:55;;;;;;;19.70;18.70;;;;;;;;;;5081147;28;20209;-79
2021/12/21 01:15:38;;;;;;;22.70;21.10;;;;;;;;;;5095136;28;20273;-79
2021/12/21 01:18:11;;;;;;;21.13;20.00;;;;;;;;;;5094895;28;20235;-79
2021/12/21 01:20:39;;;;;;;22.77;21.37;;;;;;;;;;5094836;28;20697;-80
2021/12/21 01:23:30;;;;;;;19.30;18.40;;;;;;;;;;5094478;28;20233;-81
2021/12/21 01:26:03;;;;;;;20.70;19.60;;;;;;;;;;5094680;28;20687;-78
2021/12/21 01:28:39;;;;;;;22.17;20.47;;;;;;;;;;5094813;28;20182;-81
2021/12/21 01:31:19;;;;;;;21.30;20.10;;;;;;;;;;5094582;28;20189;-81
2021/12/21 01:33:58;;;;;;;22.60;21.00;;;;;;;;;;5094887;28;20190;-80
2021/12/21 01:36:31;;;;;;;20.77;19.67;;;;;;;;;;5094792;28;20182;-80
2021/12/21 01:39:05;;;;;;;22.53;21.10;;;;;;;;;;5094755;28;20186;-78
2021/12/21 01:41:38;;;;;;;21.40;20.30;;;;;;;;;;5094930;28;20187;-79
2021/12/21 01:44:19;;;;;;;22.07;20.83;;;;;;;;;;5094515;28;20224;-79
2021/12/21 01:49:38;;;;;;;22.23;20.93;;;;;;;;;;5094353;28;20319;-79
2021/12/21 01:52:05;;;;;;;20.27;19.27;;;;;;;;;;5094492;28;20185;-78
2021/12/21 01:54:32;;;;;;;20.40;19.40;;;;;;;;;;5094112;28;20198;-79
2021/12/21 01:56:58;;;;;;;21.67;20.43;;;;;;;;;;5094153;28;20656;-80
2021/12/21 01:59:26;;;;;;;19.53;18.63;;;;;;;;;;5094309;28;20193;-73
2021/12/21 02:01:53;;;;;;;19.90;18.90;;;;;;;;;;5094157;28;20722;-79
2021/12/21 02:04:20;;;;;;;20.50;19.37;;;;;;;;;;5094173;28;20272;-78
2021/12/21 02:06:48;;;;;;;20.40;19.30;;;;;;;;;;5093843;28;20649;-79
2021/12/21 02:09:15;;;;;;;20.40;19.40;;;;;;;;;;5093771;28;20197;-80
2021/12/21 02:11:42;;;;;;;21.07;20.07;;;;;;;;;;5094127;28;20277;-78
2021/12/21 02:14:10;;;;;;;19.60;18.50;;;;;;;;;;5093683;28;20229;-79
2021/12/21 02:16:48;;;;;;;19.60;18.70;;;;;;;;;;5093694;28;20636;-78
2021/12/21 02:19:21;;;;;;;19.03;18.13;;;;;;;;;;5093929;28;20190;-78
2021/12/21 02:21:53;;;;;;;21.40;19.97;;;;;;;;;;5093863;28;20198;-79
2021/12/21 02:24:24;;;;;;;22.20;21.00;;;;;;;;;;5093261;28;20225;-79
2021/12/21 02:27:04;;;;;;;21.97;20.87;;;;;;;;;;5093782;28;20228;-78
2021/12/21 02:29:34;;;;;;;24.83;23.33;;;;;;;;;;5093654;28;20190;-77
2021/12/21 02:32:00;;;;;;;25.63;24.17;;;;;;;;;;5093684;28;20197;-79
2021/12/21 02:34:27;;;;;;;22.27;21.17;;;;;;;;;;5093862;28;20193;-78
2021/12/21 02:36:56;;;;;;;24.23;22.60;;;;;;;;;;5093630;28;20234;-78
2021/12/21 02:39:24;;;;;;;27.67;26.17;;;;;;;;;;5093512;28;20276;-79
2021/12/21 02:41:51;;;;;;;25.07;23.77;;;;;;;;;;5093472;28;20236;-79
2021/12/21 02:44:17;;;;;;;22.87;21.57;;;;;;;;;;5093356;28;20229;-79
2021/12/21 02:46:45;;;;;;;23.10;21.90;;;;;;;;;;5093038;28;20280;-80
2021/12/21 02:49:13;;;;;;;23.87;22.67;;;;;;;;;;5094190;28;20205;-78
2021/12/21 02:51:40;;;;;;;19.47;18.57;;;;;;;;;;5093326;28;20215;-78
2021/12/21 02:54:08;;;;;;;21.03;20.03;;;;;;;;;;5092970;28;20292;-77
2021/12/21 02:56:35;;;;;;;22.53;21.43;;;;;;;;;;5093174;28;20202;-77
2021/12/21 02:59:01;;;;;;;21.50;20.40;;;;;;;;;;5092826;28;20269;-77
2021/12/21 03:01:29;;;;;;;21.50;20.50;;;;;;;;;;5092905;28;20193;-79
2021/12/21 03:03:56;;;;;;;26.03;21.73;;;;;;;;;;5093163;28;20222;-79
2021/12/21 03:06:58;;;;;;;22.30;21.23;;;;;;;;;;5093072;28;20215;-78
2021/12/21 03:09:40;;;;;;;23.53;22.33;;;;;;;;;;5092591;28;20197;-79
2021/12/21 03:12:15;;;;;;;27.20;25.70;;;;;;;;;;5092941;28;20214;-79
2021/12/21 03:14:42;;;;;;;26.10;24.70;;;;;;;;;;5092935;28;20189;-78
2021/12/21 03:17:10;;;;;;;26.00;24.60;;;;;;;;;;5093338;28;20196;-78
2021/12/21 03:19:36;;;;;;;25.53;24.17;;;;;;;;;;5092529;28;20198;-79
2021/12/21 03:22:03;;;;;;;24.97;23.57;;;;;;;;;;5092737;28;20652;-79
2021/12/21 03:24:31;;;;;;;24.83;23.53;;;;;;;;;;5092226;28;20272;-80
2021/12/21 03:26:59;;;;;;;25.27;23.97;;;;;;;;;;5092476;28;20228;-79
2021/12/21 03:29:26;;;;;;;24.17;22.97;;;;;;;;;;5092701;28;20285;-77
2021/12/21 03:31:53;;;;;;;24.20;22.93;;;;;;;;;;5092598;28;20229;-79
2021/12/21 03:34:20;;;;;;;25.93;24.63;;;;;;;;;;5092623;28;20229;-79
2021/12/21 03:36:47;;;;;;;24.87;23.47;;;;;;;;;;5092265;28;20229;-78
2021/12/21 03:39:18;;;;;;;26.13;24.73;;;;;;;;;;5092642;28;20221;-79
2021/12/21 03:41:48;;;;;;;22.73;21.73;;;;;;;;;;5092495;28;20186;-78
2021/12/21 03:44:15;;;;;;;23.57;22.47;;;;;;;;;;5092524;28;20570;-78
2021/12/21 03:46:46;;;;;;;23.77;22.67;;;;;;;;;;5092453;28;20229;-79
2021/12/21 03:49:46;;;;;;;24.53;23.33;;;;;;;;;;5092517;28;20194;-78
2021/12/21 03:52:05;;;;;;;21.37;20.40;;;;;;;;;;5092757;28;20201;-79
2021/12/21 03:54:32;;;;;;;23.93;22.70;;;;;;;;;;5092388;28;20292;-79
2021/12/21 03:57:01;;;;;;;22.60;21.60;;;;;;;;;;5092413;28;20193;-78
2021/12/21 03:59:28;;;;;;;22.90;21.90;;;;;;;;;;5092367;28;20200;-78
2021/12/21 04:01:55;;;;;;;25.43;24.13;;;;;;;;;;5092330;28;20247;-77
2021/12/21 04:04:22;;;;;;;25.60;23.93;;;;;;;;;;5092180;28;20316;-79
2021/12/21 04:06:49;;;;;;;22.87;21.77;;;;;;;;;;5092007;28;20193;-78
2021/12/21 04:09:16;;;;;;;21.20;20.30;;;;;;;;;;5093791;28;20229;-80
2021/12/21 04:11:43;;;;;;;23.67;22.47;;;;;;;;;;5096399;28;20233;-78
2021/12/21 04:14:12;;;;;;;21.17;20.17;;;;;;;;;;5096283;28;20225;-79
2021/12/21 04:16:38;;;;;;;24.00;22.90;;;;;;;;;;5096587;28;20666;-79
2021/12/21 04:19:05;;;;;;;24.13;22.97;;;;;;;;;;5096026;28;20663;-78
2021/12/21 04:21:32;;;;;;;25.40;24.10;;;;;;;;;;5095927;28;20245;-79
2021/12/21 04:23:59;;;;;;;22.63;21.60;;;;;;;;;;5095612;28;20225;-78
2021/12/21 04:26:26;;;;;;;24.17;22.97;;;;;;;;;;5095766;28;20712;-78
2021/12/21 04:28:52;;;;;;;24.30;23.10;;;;;;;;;;5095763;28;20289;-79
2021/12/21 04:31:21;;;;;;;23.83;22.73;;;;;;;;;;5095985;28;20190;-77
2021/12/21 04:33:48;;;;;;;21.30;20.40;;;;;;;;;;5095671;28;20656;-79
2021/12/21 04:36:14;;;;;;;22.63;21.63;;;;;;;;;;5095947;28;20198;-77
2021/12/21 04:38:45;;;;;;;21.53;20.63;;;;;;;;;;5095754;28;20251;-77
2021/12/21 04:41:15;;;;;;;20.87;19.97;;;;;;;;;;5095754;28;20243;-78
2021/12/21 04:43:42;;;;;;;21.27;20.27;;;;;;;;;;5095759;28;20193;-77
2021/12/21 04:46:09;;;;;;;21.83;20.80;;;;;;;;;;5095670;28;20233;-78
2021/12/21 04:48:37;;;;;;;21.23;20.33;;;;;;;;;;5095648;28;20276;-77
2021/12/21 04:51:04;;;;;;;20.93;20.03;;;;;;;;;;5095656;28;20194;-78
2021/12/21 04:53:30;;;;;;;23.90;22.70;;;;;;;;;;5095725;28;20289;-77
2021/12/21 04:55:57;;;;;;;23.33;22.13;;;;;;;;;;5095534;28;20190;-79
2021/12/21 04:58:25;;;;;;;23.00;21.90;;;;;;;;;;5095161;28;20285;-79
2021/12/21 05:00:52;;;;;;;23.23;22.07;;;;;;;;;;5095404;28;20280;-78
2021/12/21 05:03:19;;;;;;;23.10;22.03;;;;;;;;;;5095406;28;20225;-78
2021/12/21 05:05:47;;;;;;;22.30;21.30;;;;;;;;;;5095058;28;20226;-78
2021/12/21 05:08:20;;;;;;;21.80;20.80;;;;;;;;;;5095252;28;20231;-78
2021/12/21 05:10:50;;;;;;;24.00;22.70;;;;;;;;;;5095323;28;20243;-78
2021/12/21 05:13:17;;;;;;;22.80;21.77;;;;;;;;;;5095181;28;20277;-78
2021/12/21 05:15:44;;;;;;;23.73;22.63;;;;;;;;;;5094842;28;20286;-78
2021/12/21 05:18:11;;;;;;;23.50;22.40;;;;;;;;;;5094799;28;20675;-78
2021/12/21 05:20:38;;;;;;;20.87;19.97;;;;;;;;;;5094047;28;20282;-78
2021/12/21 05:23:06;;;;;;;23.13;21.70;;;;;;;;;;5094862;28;20226;-76
2021/12/21 05:25:33;;;;;;;20.57;19.67;;;;;;;;;;5094947;28;20229;-76
2021/12/21 05:28:00;;;;;;;21.70;20.70;;;;;;;;;;5095587;28;20194;-79
2021/12/21 05:30:27;;;;;;;21.07;20.17;;;;;;;;;;5094486;28;20229;-74
2021/12/21 05:32:54;;;;;;;21.77;20.77;;;;;;;;;;5094564;28;20656;-77
2021/12/21 05:35:22;;;;;;;19.43;18.53;;;;;;;;;;5094492;28;20280;-78
2021/12/21 05:37:52;;;;;;;20.23;19.43;;;;;;;;;;5094506;28;20672;-77
2021/12/21 05:40:20;;;;;;;22.80;21.80;;;;;;;;;;5095298;28;20197;-78
2021/12/21 05:42:48;;;;;;;20.23;19.33;;;;;;;;;;5094372;28;20721;-78
2021/12/21 05:45:15;;;;;;;19.37;18.47;;;;;;;;;;5094586;28;20280;-76
2021/12/21 05:47:42;;;;;;;21.00;20.00;;;;;;;;;;5094573;28;20232;-78
2021/12/21 05:50:11;;;;;;;19.37;18.47;;;;;;;;;;5094522;28;20194;-78
2021/12/21 05:52:38;;;;;;;18.77;17.97;;;;;;;;;;5094118;28;20197;-79
2021/12/21 05:55:05;;;;;;;21.83;20.73;;;;;;;;;;5094447;28;20230;-79
2021/12/21 05:57:33;;;;;;;19.73;18.63;;;;;;;;;;5094391;28;20248;-77
2021/12/21 06:00:00;;;;;;;20.43;19.53;;;;;;;;;;5094020;28;20229;-78
2021/12/21 06:02:27;;;;;;;19.23;18.43;;;;;;;;;;5094356;28;20236;-78
2021/12/21 06:04:53;;;;;;;18.70;17.90;;;;;;;;;;5093829;28;20232;-77
2021/12/21 06:07:20;;;;;;;18.20;17.40;;;;;;;;;;5094251;28;20247;-77
2021/12/21 06:09:48;;;;;;;19.17;18.37;;;;;;;;;;5094672;28;20233;-77
2021/12/21 06:12:26;;;;;;;18.63;17.83;;;;;;;;;;5094093;28;20194;-77
2021/12/21 06:15:17;;;;;;;17.20;16.40;;;;;;;;;;5093813;28;20198;-79
2021/12/21 06:23:36;;;;;;;17.87;17.17;;;;;;;;;;5093761;28;20244;-77
2021/12/21 06:26:02;;;;;;;20.03;19.13;;;;;;;;;;5094680;28;20214;-78
2021/12/21 06:28:29;;;;;;;21.17;20.00;;;;;;;;;;5093498;28;20198;-77
2021/12/21 06:30:58;;;;;;;20.53;19.53;;;;;;;;;;5093779;28;20611;-76
2021/12/21 06:33:24;;;;;;;20.87;19.97;;;;;;;;;;5093031;28;20228;-76
2021/12/21 06:35:51;;;;;;;21.07;20.07;;;;;;;;;;5093377;28;20575;-77
2021/12/21 06:38:18;;;;;;;22.90;21.80;;;;;;;;;;5094651;28;20232;-76
2021/12/21 06:40:45;;;;;;;21.97;20.97;;;;;;;;;;5093511;28;20190;-76
2021/12/21 06:43:14;;;;;;;23.47;22.37;;;;;;;;;;5093213;28;20239;-76
2021/12/21 06:45:49;;;;;;;22.80;21.70;;;;;;;;;;5093036;28;20221;-76
2021/12/21 06:51:15;;;;;;;23.57;22.47;;;;;;;;;;5093204;28;20189;-76
2021/12/21 06:53:43;;;;;;;23.37;22.27;;;;;;;;;;5093595;28;20186;-76
2021/12/21 06:56:10;;;;;;;23.77;22.67;;;;;;;;;;5092962;28;20285;-76
2021/12/21 06:58:36;;;;;;;20.20;19.10;;;;;;;;;;5093279;28;20232;-76
2021/12/21 07:01:04;;;;;;;23.33;21.93;;;;;;;;;;5092868;28;20568;-76
2021/12/21 07:03:32;;;;;;;23.93;22.33;;;;;;;;;;5093122;28;20233;-76
2021/12/21 07:06:01;;;;;;;22.73;21.37;;;;;;;;;;5092945;28;20308;-76
2021/12/21 07:08:30;;;;;;;23.47;22.07;;;;;;;;;;5093252;28;20629;-76
2021/12/21 07:11:10;;;;;;;21.23;20.23;;;;;;;;;;5093773;28;20193;-76
2021/12/21 07:19:06;;;;;;;21.50;20.40;;;;;;;;;;5092946;28;20197;-78
2021/12/21 07:21:33;;;;;;;21.20;20.13;;;;;;;;;;5092838;28;20278;-76
2021/12/21 07:23:59;;;;;;;20.67;19.70;;;;;;;;;;5092687;28;20321;-76
2021/12/21 07:26:27;;;;;;;20.83;19.83;;;;;;;;;;5092705;28;20264;-76
2021/12/21 07:28:53;;;;;;;22.33;21.17;;;;;;;;;;5092696;28;20201;-76
2021/12/21 07:31:20;;;;;;;22.60;21.40;;;;;;;;;;5092593;28;20284;-77
2021/12/21 07:33:47;;;;;;;21.17;20.17;;;;;;;;;;5092984;28;20279;-76
2021/12/21 07:36:15;;;;;;;21.47;20.47;;;;;;;;;;5092612;28;20277;-76
2021/12/21 07:38:41;;;;;;;22.23;21.03;;;;;;;;;;5092600;28;20547;-76
2021/12/21 07:41:08;;;;;;;23.00;21.80;;;;;;;;;;5092233;28;20255;-76
2021/12/21 07:43:35;;;;;;;22.23;21.13;;;;;;;;;;5091824;28;20221;-76
2021/12/21 07:46:02;;;;;;;23.33;22.23;;;;;;;;;;5092159;28;20264;-78
2021/12/21 07:48:29;;;;;;;24.63;23.33;;;;;;;;;;5092217;28;20197;-78
2021/12/21 07:50:55;;;;;;;22.87;21.70;;;;;;;;;;5092152;28;20630;-77
2021/12/21 07:53:24;;;;;;;22.20;21.10;;;;;;;;;;5092494;28;20197;-77
2021/12/21 07:55:50;;;;;;;22.97;21.83;;;;;;;;;;5092010;28;20193;-77
2021/12/21 07:58:17;;;;;;;24.20;22.83;;;;;;;;;;5092326;28;20734;-77
2021/12/21 08:00:44;;;;;;;23.53;22.37;;;;;;;;;;5092321;28;20285;-78
2021/12/21 08:03:15;;;;;;;22.23;21.13;;;;;;;;;;5092357;28;20225;-79
2021/12/21 08:05:43;;;;;;;23.97;22.67;;;;;;;;;;5091964;28;20210;-78
2021/12/21 08:08:14;;;;;;;22.17;20.97;;;;;;;;;;5092164;28;20565;-79
2021/12/21 08:10:46;;;;;;;22.43;21.23;;;;;;;;;;5091998;28;20193;-78
2021/12/21 08:13:13;;;;;;;20.87;19.87;;;;;;;;;;5091987;28;20563;-78
2021/12/21 08:15:40;;;;;;;22.17;20.93;;;;;;;;;;5091911;28;20212;-80
2021/12/21 08:18:07;;;;;;;21.47;20.37;;;;;;;;;;5091846;28;20255;-80
2021/12/21 08:20:33;;;;;;;23.93;22.47;;;;;;;;;;5091894;28;20285;-79
2021/12/21 08:23:00;;;;;;;22.27;21.17;;;;;;;;;;5092001;28;20282;-79
2021/12/21 08:25:28;;;;;;;23.27;21.87;;;;;;;;;;5091963;28;20653;-82
2021/12/21 08:27:57;;;;;;;23.63;22.53;;;;;;;;;;5092096;28;20225;-78
2021/12/21 08:30:23;;;;;;;26.23;24.73;;;;;;;;;;5091779;28;20232;-80
2021/12/21 08:32:50;;;;;;;23.73;22.37;;;;;;;;;;5092076;28;20284;-81
2021/12/21 08:35:17;;;;;;;24.43;23.20;;;;;;;;;;5092317;28;20270;-81
2021/12/21 08:37:49;;;;;;;24.30;23.07;;;;;;;;;;5092300;28;20341;-82
2021/12/21 08:40:16;;;;;;;24.77;23.53;;;;;;;;;;5092212;28;20194;-75
2021/12/21 08:42:45;;;;;;;25.97;24.53;;;;;;;;;;5092091;28;20572;-79
2021/12/21 08:45:13;;;;;;;24.00;22.83;;;;;;;;;;5091734;28;20733;-81
2021/12/21 08:47:40;;;;;;;23.93;22.73;;;;;;;;;;5091615;28;20225;-76
2021/12/21 08:50:08;;;;;;;24.50;23.30;;;;;;;;;;5091887;28;20190;-76
2021/12/21 08:52:36;;;;;;;22.97;21.63;;;;;;;;;;5091540;28;20230;-81
2021/12/21 08:55:04;;;;;;;23.33;22.13;;;;;;;;;;5093002;28;20190;-81
2021/12/21 08:57:31;;;;;;;24.37;22.97;;;;;;;;;;5095723;28;20197;-82
2021/12/21 08:59:58;;;;;;;21.67;20.57;;;;;;;;;;5095426;28;20248;-80
2021/12/21 09:02:29;;;;;;;22.73;21.53;;;;;;;;;;5095105;28;20193;-79
2021/12/21 09:04:55;;;;;;;23.70;22.30;;;;;;;;;;5095428;28;20225;-80
2021/12/21 09:07:22;;;;;;;24.77;23.37;;;;;;;;;;5095027;28;20645;-81
2021/12/21 09:09:49;;;;;;;24.57;23.37;;;;;;;;;;5095502;28;20201;-80
2021/12/21 09:12:16;;;;;;;24.33;23.13;;;;;;;;;;5095051;28;20289;-81
2021/12/21 09:14:42;;;;;;;24.63;23.23;;;;;;;;;;5094971;28;20621;-77
2021/12/21 09:17:09;;;;;;;26.73;25.13;;;;;;;;;;5095142;28;20198;-79
2021/12/21 09:19:37;;;;;;;25.37;23.87;;;;;;;;;;5095192;28;20247;-81
2021/12/21 09:22:04;;;;;;;24.67;23.17;;;;;;;;;;5095125;28;20273;-82
2021/12/21 09:24:31;;;;;;;24.37;23.07;;;;;;;;;;5094724;28;20225;-83
2021/12/21 09:26:58;;;;;;;24.93;23.53;;;;;;;;;;5094738;28;20225;-81
2021/12/21 09:29:24;;;;;;;22.73;21.43;;;;;;;;;;5094934;28;20197;-81
2021/12/21 09:31:51;;;;;;;24.17;22.77;;;;;;;;;;5094721;28;20197;-82
2021/12/21 09:34:18;;;;;;;24.23;22.93;;;;;;;;;;5094640;28;20702;-81
2021/12/21 09:36:46;;;;;;;26.97;25.47;;;;;;;;;;5094922;28;20198;-81
2021/12/21 09:39:13;;;;;;;24.33;22.93;;;;;;;;;;5094890;28;20302;-80
2021/12/21 09:41:40;;;;;;;23.40;22.10;;;;;;;;;;5094378;28;20194;-81
2021/12/21 09:44:06;;;;;;;24.70;23.10;;;;;;;;;;5094419;28;20276;-81
2021/12/21 09:46:33;;;;;;;25.00;23.47;;;;;;;;;;5094274;28;20288;-80
2021/12/21 09:49:00;;;;;;;26.00;24.50;;;;;;;;;;5094619;28;20247;-78
2021/12/21 09:51:26;;;;;;;27.43;25.50;;;;;;;;;;5094536;28;20252;-79
2021/12/21 09:53:56;;;;;;;26.73;25.03;;;;;;;;;;5094487;28;20273;-79
2021/12/21 09:56:23;;;;;;;25.03;23.63;;;;;;;;;;5094187;28;20229;-77
2021/12/21 09:58:50;;;;;;;28.17;25.90;;;;;;;;;;5094098;28;20194;-78
2021/12/21 10:01:19;;;;;;;27.30;25.40;;;;;;;;;;5094382;28;20248;-73
2021/12/21 10:03:45;;;;;;;26.37;24.73;;;;;;;;;;5094305;28;20236;-77
2021/12/21 10:06:12;;;;;;;26.50;25.00;;;;;;;;;;5093683;28;20317;-76
2021/12/21 10:08:39;;;;;;;26.20;24.70;;;;;;;;;;5093745;28;20193;-77
2021/12/21 10:11:08;;;;;;;24.37;22.77;;;;;;;;;;5094152;28;20190;-78
2021/12/21 10:13:35;;;;;;;24.73;23.27;;;;;;;;;;5094129;28;20342;-77
2021/12/21 10:16:05;;;;;;;24.07;22.77;;;;;;;;;;5094300;28;20231;-77
2021/12/21 10:18:33;;;;;;;23.30;22.00;;;;;;;;;;5094017;28;20194;-76
2021/12/21 10:21:01;;;;;;;24.20;22.80;;;;;;;;;;5093696;28;20220;-75
2021/12/21 10:23:29;;;;;;;23.30;22.00;;;;;;;;;;5093577;28;20695;-75
2021/12/21 10:25:57;;;;;;;23.60;22.20;;;;;;;;;;5092796;28;20189;-76
2021/12/21 10:28:30;;;;;;;24.47;23.07;;;;;;;;;;5093498;28;20255;-74
2021/12/21 10:30:57;;;;;;;24.00;22.50;;;;;;;;;;5093766;28;20193;-75
2021/12/21 10:33:24;;;;;;;24.13;22.73;;;;;;;;;;5093419;28;20194;-75
2021/12/21 10:35:51;;;;;;;23.63;22.33;;;;;;;;;;5093676;28;20272;-75
2021/12/21 10:38:25;;;;;;;23.77;22.37;;;;;;;;;;5093326;28;20204;-75
2021/12/21 10:40:52;;;;;;;24.10;22.70;;;;;;;;;;5093577;28;20223;-75
2021/12/21 10:43:18;;;;;;;24.60;23.10;;;;;;;;;;5093568;28;20241;-74
2021/12/21 10:45:47;;;;;;;22.23;21.13;;;;;;;;;;5093518;28;20732;-75
2021/12/21 10:48:16;;;;;;;20.87;19.80;;;;;;;;;;5093111;28;20306;-74
2021/12/21 10:50:43;;;;;;;23.20;21.90;;;;;;;;;;5093333;28;20194;-75
2021/12/21 10:53:16;;;;;;;25.80;24.20;;;;;;;;;;5093123;28;20194;-74
2021/12/21 10:55:42;;;;;;;24.10;22.80;;;;;;;;;;5093370;28;20190;-75
2021/12/21 10:58:12;;;;;;;25.17;23.57;;;;;;;;;;5093278;28;20250;-76
2021/12/21 11:00:40;;;;;;;25.40;23.80;;;;;;;;;;5093218;28;20243;-74
2021/12/21 11:03:08;;;;;;;25.37;23.87;;;;;;;;;;5093168;28;20229;-74
2021/12/21 11:05:35;;;;;;;25.37;23.87;;;;;;;;;;5093106;28;20229;-75
2021/12/21 11:08:06;;;;;;;25.57;24.07;;;;;;;;;;5093257;28;20286;-76
2021/12/21 11:10:35;;;;;;;26.17;24.57;;;;;;;;;;5092801;28;20186;-75
2021/12/21 11:13:03;;;;;;;26.50;24.70;;;;;;;;;;5092677;28;20247;-75
2021/12/21 11:15:32;;;;;;;23.80;22.50;;;;;;;;;;5093000;28;20244;-75
2021/12/21 11:18:00;;;;;;;25.60;24.00;;;;;;;;;;5092307;28;20276;-75
2021/12/21 11:20:28;;;;;;;25.10;23.60;;;;;;;;;;5092664;28;20198;-75
2021/12/21 11:22:55;;;;;;;25.73;24.17;;;;;;;;;;5092483;28;20275;-77
2021/12/21 11:25:22;;;;;;;27.73;26.07;;;;;;;;;;5093353;28;20190;-75
2021/12/21 11:27:49;;;;;;;25.27;23.77;;;;;;;;;;5092627;28;20256;-75
2021/12/21 11:30:18;;;;;;;26.50;24.83;;;;;;;;;;5092637;28;20196;-76
2021/12/21 11:32:48;;;;;;;25.57;24.07;;;;;;;;;;5092742;28;20229;-75
2021/12/21 11:38:02;;;;;;;28.70;27.00;;;;;;;;;;5093005;28;20193;-77
2021/12/21 11:40:30;;;;;;;26.97;25.47;;;;;;;;;;5091413;28;20198;-75
2021/12/21 11:43:06;;;;;;;28.60;26.90;;;;;;;;;;5092614;28;20648;-76
2021/12/21 11:45:34;;;;;;;25.13;23.73;;;;;;;;;;5092693;28;20185;-75
2021/12/21 11:48:03;;;;;;;26.27;24.77;;;;;;;;;;5092497;28;20308;-76
2021/12/21 11:50:30;;;;;;;26.57;25.07;;;;;;;;;;5092407;28;20566;-75
2021/12/21 11:53:02;;;;;;;26.47;24.97;;;;;;;;;;5092369;28;20193;-76
2021/12/21 11:55:31;;;;;;;25.07;23.57;;;;;;;;;;5092430;28;20690;-75
2021/12/21 11:58:00;;;;;;;23.90;22.60;;;;;;;;;;5092425;28;20193;-76
2021/12/21 12:00:28;;;;;;;24.57;23.17;;;;;;;;;;5092128;28;20285;-77
2021/12/21 12:02:56;;;;;;;24.90;23.50;;;;;;;;;;5092262;28;20193;-76
2021/12/21 12:05:24;;;;;;;25.37;23.77;;;;;;;;;;5092046;28;20200;-75
2021/12/21 12:08:00;;;;;;;24.50;23.07;;;;;;;;;;5092110;28;20235;-76
2021/12/21 12:10:27;;;;;;;24.30;22.90;;;;;;;;;;5092189;28;20193;-77
2021/12/21 12:12:56;;;;;;;23.30;21.90;;;;;;;;;;5091925;28;20284;-79
2021/12/21 12:15:22;;;;;;;25.10;23.70;;;;;;;;;;5091992;28;20221;-77
2021/12/21 12:17:50;;;;;;;27.33;25.73;;;;;;;;;;5092151;28;20200;-76
2021/12/21 12:20:18;;;;;;;27.33;25.83;;;;;;;;;;5092279;28;20228;-76
2021/12/21 12:22:46;;;;;;;27.43;25.93;;;;;;;;;;5092230;28;20689;-78
2021/12/21 12:25:17;;;;;;;26.77;25.27;;;;;;;;;;5091883;28;20185;-76
2021/12/21 12:27:45;;;;;;;27.57;26.07;;;;;;;;;;5091797;28;20305;-76
2021/12/21 12:30:16;;;;;;;28.37;26.77;;;;;;;;;;5093131;28;20244;-77
2021/12/21 12:32:43;;;;;;;27.47;25.97;;;;;;;;;;5095847;28;20186;-76
2021/12/21 12:35:11;;;;;;;28.67;27.00;;;;;;;;;;5096099;28;20200;-77
2021/12/21 12:37:48;;;;;;;27.33;25.83;;;;;;;;;;5095921;28;20610;-77
2021/12/21 12:40:15;;;;;;;27.47;25.97;;;;;;;;;;5095729;28;20215;-77
2021/12/21 12:42:42;;;;;;;27.17;25.67;;;;;;;;;;5095842;28;20277;-77
2021/12/21 12:45:13;;;;;;;27.73;26.23;;;;;;;;;;5095550;28;20194;-76
2021/12/21 12:47:45;;;;;;;28.20;26.53;;;;;;;;;;5095393;28;20586;-77
2021/12/21 12:50:16;;;;;;;26.80;25.30;;;;;;;;;;5095483;28;20281;-76
2021/12/21 12:52:49;;;;;;;24.70;23.30;;;;;;;;;;5095311;28;20194;-77
2021/12/21 12:55:16;;;;;;;26.43;24.93;;;;;;;;;;5095715;28;20636;-77
2021/12/21 12:57:50;;;;;;;26.10;24.60;;;;;;;;;;5095564;28;20198;-76
2021/12/21 13:00:19;;;;;;;26.33;24.83;;;;;;;;;;5095657;28;20189;-77
2021/12/21 13:02:55;;;;;;;26.10;24.47;;;;;;;;;;5095222;28;20680;-75
2021/12/21 13:05:27;;;;;;;26.90;25.40;;;;;;;;;;5095712;28;20648;-77
2021/12/21 13:07:53;;;;;;;26.73;25.23;;;;;;;;;;5095040;28;20210;-76
2021/12/21 13:10:22;;;;;;;24.40;23.10;;;;;;;;;;5095403;28;20233;-77
2021/12/21 13:12:55;;;;;;;26.70;25.10;;;;;;;;;;5095068;28;20194;-77
2021/12/21 13:15:31;;;;;;;26.27;24.83;;;;;;;;;;5095050;28;20190;-77
2021/12/21 13:18:01;;;;;;;25.93;24.43;;;;;;;;;;5094957;28;20225;-77
2021/12/21 13:20:28;;;;;;;25.83;24.43;;;;;;;;;;5095195;28;20285;-78
2021/12/21 13:22:55;;;;;;;25.27;23.60;;;;;;;;;;5094904;28;20237;-77
2021/12/21 13:25:21;;;;;;;25.40;24.00;;;;;;;;;;5095033;28;20221;-78
2021/12/21 13:27:48;;;;;;;25.77;24.27;;;;;;;;;;5094663;28;20275;-77
2021/12/21 13:30:18;;;;;;;24.00;22.70;;;;;;;;;;5094965;28;20675;-77
2021/12/21 13:32:45;;;;;;;24.23;22.87;;;;;;;;;;5094611;28;20190;-76
2021/12/21 13:35:15;;;;;;;24.67;23.23;;;;;;;;;;5094835;28;20656;-78
2021/12/21 13:37:42;;;;;;;24.50;23.10;;;;;;;;;;5094908;28;20190;-77
2021/12/21 13:40:09;;;;;;;27.03;25.43;;;;;;;;;;5094446;28;20643;-76
2021/12/21 13:42:36;;;;;;;25.40;23.90;;;;;;;;;;5093636;28;20236;-76
2021/12/21 13:45:04;;;;;;;26.87;25.27;;;;;;;;;;5094713;28;20197;-77
2021/12/21 13:47:31;;;;;;;26.60;25.00;;;;;;;;;;5094226;28;20261;-78
2021/12/21 13:50:00;;;;;;;27.27;25.67;;;;;;;;;;5094623;28;20229;-76
2021/12/21 13:52:30;;;;;;;25.70;24.20;;;;;;;;;;5094239;28;20646;-76
2021/12/21 13:54:57;;;;;;;26.50;24.90;;;;;;;;;;5094607;28;20196;-77
2021/12/21 13:57:25;;;;;;;27.37;25.87;;;;;;;;;;5094499;28;20198;-76
2021/12/21 13:59:55;;;;;;;28.40;26.50;;;;;;;;;;5094352;28;20198;-76
2021/12/21 14:02:29;;;;;;;25.17;23.77;;;;;;;;;;5094400;28;20186;-76
2021/12/21 14:05:04;;;;;;;25.47;24.07;;;;;;;;;;5094342;28;20182;-77
2021/12/21 14:07:34;;;;;;;26.73;25.23;;;;;;;;;;5093899;28;20216;-77
2021/12/21 14:10:02;;;;;;;24.17;22.77;;;;;;;;;;5094202;28;20243;-76
2021/12/21 14:12:29;;;;;;;23.80;22.50;;;;;;;;;;5093842;28;20284;-77
2021/12/21 14:14:56;;;;;;;23.73;22.33;;;;;;;;;;5094076;28;20204;-77
2021/12/21 14:17:26;;;;;;;25.53;24.10;;;;;;;;;;5094009;28;20664;-76
2021/12/21 14:19:55;;;;;;;26.23;24.30;;;;;;;;;;5094123;28;20194;-77
2021/12/21 14:22:22;;;;;;;26.47;24.87;;;;;;;;;;5093890;28;20631;-78
2021/12/21 14:24:50;;;;;;;27.60;24.97;;;;;;;;;;5094116;28;20206;-77
2021/12/21 14:27:18;;;;;;;27.80;26.10;;;;;;;;;;5093720;28;20245;-77
2021/12/21 14:29:45;;;;;;;25.13;23.63;;;;;;;;;;5093855;28;20201;-77
2021/12/21 14:32:25;;;;;;;24.53;23.03;;;;;;;;;;5093739;28;20721;-78
2021/12/21 14:34:53;;;;;;;24.13;22.63;;;;;;;;;;5094088;28;20268;-77
2021/12/21 14:37:20;;;;;;;23.17;21.87;;;;;;;;;;5093318;28;20194;-77
2021/12/21 14:39:47;;;;;;;23.90;22.50;;;;;;;;;;5093664;28;20194;-78
2021/12/21 14:42:16;;;;;;;24.60;23.10;;;;;;;;;;5093612;28;20216;-78
2021/12/21 14:44:45;;;;;;;25.47;23.97;;;;;;;;;;5093533;28;20198;-79
2021/12/21 14:47:12;;;;;;;23.37;22.17;;;;;;;;;;5093386;28;20200;-79
2021/12/21 14:49:42;;;;;;;21.67;20.50;;;;;;;;;;5093358;28;20668;-81